Airfield :
LOGIN :

Register | Disclaimer

   EN    FR    IT 

 










Legend :    VFR   Marginal VFR   IFR   Intensive IFR   Very Intensive IFR
Visi :
Ceiling :
>= 8 km
>= 3000ft
5 to 8 km
1000 to 3000 ft
1500m to 5 km
500 to 1000 ft
800 to 1500m
200 to 500 ft
< 800m
< 200 ft
Symbols :   Thunderstorms  Fog  Heavy snow  Heavy precipitations  Wind > 20 kt
SIGMETs :     Misc.  Thunderstorms  Icing  Turbulence  Mountain Waves  Volcanic Ashes






- Airport Elevation : 18 ft
- IATA code : KVA


LGKV - Megas Alexandros

CURRENT METAR :
  • 180620Z 04007KT 8000 FEW010 FEW018CB BKN025 BKN080 15/12 Q1018

EXPIRED METARs :
  • 180550Z 06007KT 8000 FEW010 FEW018TCU BKN025 BKN080 15/12 Q1018
  • 180520Z 05008KT 8000 FEW018TCU SCT020 BKN080 15/12 Q1017
  • 180450Z 05006KT 9999 FEW018 SCT080 15/12 Q1017
  • 180420Z 06006KT 9999 FEW018 SCT080 14/12 Q1017
  • 180350Z 05006KT 9999 FEW018 SCT080 14/12 Q1017

TAF TAF LGKV
Valid from the 18 at 06:00 until the 19 at 06:00 UTC


180500Z 1806/1906 VRB03KT 9999 SCT025 SCT080
TEMPO 1806/1821 7000 RA FEW008 SCT020 BKN070
PROB40
TEMPO 1806/1818 4000 TSRA FEW018CB BKN020 BKN070
PROB30
TEMPO 1900/1906 7000 RA



MET'MAP, your aeronautical weather chart ! - Copyright ORBIFLY December 2007 - Disclaimer

ORBIFLY MET'MAP TEAM :

Programming & Development : Alexandra Zaïnal
Concept & Development : Baudouin d'Aumeries
Co-Development & Prog : Marc-Olivier Méhu
Technical & hardware support : Manuel Goepfert

Contact : metmap@orbifly.com




SOURCES & CREDITS :

   NOAA